Terminal Aerodrome Forecast
Issued by NWS

Home | Current Version | Previous Version | Graphics & Text | Print | Product List | Glossary On
Versions: 1 2 3 4 5 6 7 8 9 10 11 12 13 14 15 16 17 18 19 20 21 22 23 24 25
045
FTUS43 KMPX 211504 AAA
TAFAXN
TAF AMD
KAXN 211504Z 2115/2212 11007KT 1/2SM FG OVC002
     FM212100 09004KT 2SM -DZ BR OVC003
     FM220200 VRB03KT 1/4SM FG VV002=

USA.gov is the U.S. government's official web portal to all federal, state and local government web resources and services.